createdAt,value
2022-11-15T00:01:19.784Z,15.02
2022-11-15T00:04:24.015Z,20.73
2022-11-15T00:07:54.167Z,16.45
2022-11-15T00:10:56.632Z,18.85
2022-11-15T00:14:03.454Z,14.18
2022-11-15T00:17:07.641Z,22.27
2022-11-15T00:20:12.532Z,18.33
2022-11-15T00:23:17.510Z,18.75
2022-11-15T00:26:21.827Z,20.23
2022-11-15T00:29:26.107Z,16.90
2022-11-15T00:32:33.574Z,15.70
2022-11-15T00:35:38.011Z,18.90
2022-11-15T00:38:42.173Z,16.42
2022-11-15T00:41:46.529Z,18.88
2022-11-15T00:44:50.710Z,17.15
2022-11-15T00:47:55.121Z,19.38
2022-11-15T00:50:59.364Z,19.75
2022-11-15T00:54:03.854Z,17.48
2022-11-15T00:57:08.204Z,16.23
2022-11-15T01:00:12.899Z,19.17
2022-11-15T01:03:17.265Z,15.52
2022-11-15T01:06:21.360Z,19.70
2022-11-15T01:09:25.513Z,20.42
2022-11-15T01:12:29.710Z,23.65
2022-11-15T01:15:34.233Z,23.67
2022-11-15T01:18:38.976Z,20.00
2022-11-15T01:21:43.092Z,16.05
2022-11-15T01:24:47.386Z,15.82
2022-11-15T01:27:51.761Z,18.25
2022-11-15T01:30:59.602Z,21.42
2022-11-15T01:34:03.767Z,21.25
2022-11-15T01:37:08.286Z,20.30
2022-11-15T01:40:12.252Z,19.48
2022-11-15T01:43:25.306Z,27.52
2022-11-15T01:46:36.111Z,19.10
2022-11-15T01:49:48.121Z,28.90
2022-11-15T01:52:52.114Z,19.13
2022-11-15T01:55:57.046Z,18.33
2022-11-15T01:59:05.507Z,20.60
2022-11-15T02:02:09.991Z,19.83
2022-11-15T02:05:14.038Z,20.98
2022-11-15T02:08:21.014Z,19.48
2022-11-15T02:11:25.658Z,21.75
2022-11-15T02:14:32.072Z,22.05
2022-11-15T02:17:48.825Z,19.92
2022-11-15T02:21:14.392Z,25.05
2022-11-15T02:24:50.559Z,22.33
2022-11-15T02:28:29.988Z,17.98
2022-11-15T02:31:55.738Z,20.50
2022-11-15T02:35:08.189Z,21.20
2022-11-15T02:38:29.643Z,24.77
2022-11-15T02:41:42.220Z,22.25
2022-11-15T02:44:47.833Z,21.20
2022-11-15T02:47:55.793Z,28.58
2022-11-15T02:51:01.536Z,22.90
2022-11-15T02:54:05.776Z,22.75
2022-11-15T02:57:19.814Z,23.02
2022-11-15T03:00:24.214Z,25.45
2022-11-15T03:03:55.113Z,23.98
2022-11-15T03:07:08.793Z,34.20
2022-11-15T03:10:26.705Z,25.92
2022-11-15T03:13:40.747Z,28.70
2022-11-15T03:17:11.070Z,22.27
2022-11-15T03:20:18.184Z,26.42
2022-11-15T03:23:23.376Z,25.48
2022-11-15T03:26:29.206Z,26.30
2022-11-15T03:29:40.964Z,24.33
2022-11-15T03:32:51.065Z,27.15
2022-11-15T03:35:55.753Z,31.73
2022-11-15T03:39:03.072Z,32.13
2022-11-15T03:42:23.067Z,28.27
2022-11-15T03:45:33.565Z,37.38
2022-11-15T03:48:54.766Z,30.17
2022-11-15T03:52:00.271Z,34.83
2022-11-15T03:55:07.037Z,30.65
2022-11-15T03:58:11.401Z,32.50
2022-11-15T04:01:15.746Z,34.88
2022-11-15T04:04:20.280Z,32.45
2022-11-15T04:07:24.969Z,37.85
2022-11-15T04:10:29.465Z,40.45
2022-11-15T04:13:33.936Z,42.88
2022-11-15T04:16:43.518Z,43.22
2022-11-15T04:20:06.442Z,36.70
2022-11-15T04:23:33.614Z,35.83
2022-11-15T04:26:38.148Z,34.90
2022-11-15T04:29:42.189Z,32.88
2022-11-15T04:32:46.658Z,34.20
2022-11-15T04:36:09.497Z,35.05
2022-11-15T04:42:17.907Z,38.00
2022-11-15T04:45:22.099Z,46.05
2022-11-15T04:48:26.247Z,40.85
2022-11-15T04:51:30.615Z,45.20
2022-11-15T04:54:35.258Z,42.95
2022-11-15T04:57:39.552Z,54.42
2022-11-15T05:00:43.747Z,56.63
2022-11-15T05:04:06.919Z,53.13
2022-11-15T05:07:11.181Z,52.28
2022-11-15T05:10:15.438Z,61.90
2022-11-15T05:13:19.629Z,47.83
2022-11-15T05:16:24.075Z,51.67
2022-11-15T05:19:28.332Z,59.45
2022-11-15T05:22:32.495Z,47.65
2022-11-15T05:25:37.230Z,57.45
2022-11-15T05:28:41.657Z,56.35
2022-11-15T05:31:45.584Z,62.22
2022-11-15T05:34:50.008Z,61.80
2022-11-15T05:37:54.120Z,54.05
2022-11-15T05:40:59.026Z,39.08
2022-11-15T05:44:06.709Z,61.20
2022-11-15T05:47:18.067Z,60.10
2022-11-15T05:50:22.441Z,52.92
2022-11-15T05:53:27.077Z,52.20
2022-11-15T05:56:31.644Z,64.13
2022-11-15T05:59:37.946Z,54.80
2022-11-15T06:02:43.446Z,67.45
2022-11-15T06:05:47.878Z,59.08
2022-11-15T06:08:52.059Z,63.92
2022-11-15T06:11:56.360Z,63.85
2022-11-15T06:15:00.745Z,58.65
2022-11-15T06:18:05.071Z,43.58
2022-11-15T06:21:09.109Z,56.92
2022-11-15T06:24:13.841Z,54.47
2022-11-15T06:27:18.256Z,52.78
2022-11-15T06:30:23.796Z,59.97
2022-11-15T06:33:28.055Z,52.25
2022-11-15T06:36:34.868Z,53.47
2022-11-15T06:39:38.999Z,55.00
2022-11-15T06:42:43.248Z,57.17
2022-11-15T06:45:47.582Z,51.67
2022-11-15T06:48:53.135Z,63.50
2022-11-15T06:51:57.612Z,58.05
2022-11-15T06:55:01.984Z,60.15
2022-11-15T06:58:06.181Z,63.65
2022-11-15T07:01:12.835Z,61.65
2022-11-15T07:04:17.219Z,54.70
2022-11-15T07:07:21.955Z,54.47
2022-11-15T07:10:26.908Z,60.95
2022-11-15T07:13:35.745Z,59.03
2022-11-15T07:16:40.223Z,62.67
2022-11-15T07:19:44.450Z,64.20
2022-11-15T07:22:48.831Z,62.13
2022-11-15T07:25:53.467Z,52.65
2022-11-15T07:28:58.322Z,69.70
2022-11-15T07:32:03.134Z,70.93
2022-11-15T07:35:07.576Z,67.70
2022-11-15T07:38:11.589Z,51.55
2022-11-15T07:41:16.172Z,57.13
2022-11-15T07:44:20.460Z,54.45
2022-11-15T07:47:24.852Z,53.72
2022-11-15T07:50:32.133Z,50.38
2022-11-15T07:53:36.254Z,52.55
2022-11-15T07:56:40.431Z,65.15
2022-11-15T07:59:44.906Z,62.50
2022-11-15T08:02:49.446Z,62.75
2022-11-15T08:05:53.913Z,78.80
2022-11-15T08:08:58.007Z,65.45
2022-11-15T08:12:02.507Z,66.97
2022-11-15T08:15:07.397Z,59.70
2022-11-15T08:18:14.590Z,62.97
2022-11-15T08:21:21.086Z,90.60
2022-11-15T08:24:25.679Z,94.93
2022-11-15T08:27:30.092Z,67.00
2022-11-15T08:30:38.124Z,52.53
2022-11-15T08:33:42.485Z,56.05
2022-11-15T08:36:47.710Z,68.57
2022-11-15T08:39:51.981Z,77.80
2022-11-15T08:42:56.389Z,77.93
2022-11-15T08:46:00.803Z,68.45
2022-11-15T08:49:05.294Z,72.05
2022-11-15T08:52:09.359Z,71.38
2022-11-15T08:55:14.657Z,72.15
2022-11-15T08:58:20.065Z,66.85
2022-11-15T09:01:25.528Z,50.53
2022-11-15T09:04:30.235Z,56.13
2022-11-15T09:07:34.454Z,79.03
2022-11-15T09:10:38.510Z,57.30
2022-11-15T09:13:43.357Z,67.57
2022-11-15T09:16:47.532Z,60.70
2022-11-15T09:19:53.186Z,61.40
2022-11-15T09:23:02.254Z,69.45
2022-11-15T09:26:07.249Z,63.30
2022-11-15T09:29:11.312Z,59.97
2022-11-15T09:32:15.982Z,59.92
2022-11-15T09:35:20.390Z,51.13
2022-11-15T09:38:24.684Z,62.15
2022-11-15T09:41:40.942Z,59.13
2022-11-15T09:45:08.421Z,50.75
2022-11-15T09:48:37.385Z,50.22
2022-11-15T09:51:51.646Z,70.90
2022-11-15T09:54:58.183Z,59.72
2022-11-15T09:58:16.845Z,66.95
2022-11-15T10:01:13.232Z,55.78
2022-11-15T10:04:05.521Z,64.82
2022-11-15T10:07:04.218Z,56.22
2022-11-15T10:10:04.376Z,70.30
2022-11-15T10:12:52.725Z,65.32
2022-11-15T10:15:38.536Z,50.58
2022-11-15T10:18:49.181Z,58.95
2022-11-15T10:21:47.738Z,44.28
2022-11-15T10:24:38.514Z,57.03
2022-11-15T10:27:24.636Z,50.03
2022-11-15T10:30:16.626Z,55.95
2022-11-15T10:33:19.802Z,71.22
2022-11-15T10:36:14.259Z,66.13
2022-11-15T10:39:00.105Z,50.28
2022-11-15T10:41:45.512Z,52.13
2022-11-15T10:44:32.163Z,60.30
2022-11-15T10:47:37.672Z,49.80
2022-11-15T10:50:33.459Z,48.95
2022-11-15T10:56:29.411Z,43.60
2022-11-15T10:59:22.002Z,53.00
2022-11-15T11:02:35.296Z,50.88
2022-11-15T11:05:29.119Z,45.92
2022-11-15T11:08:14.376Z,53.92
2022-11-15T11:11:03.484Z,51.47
2022-11-15T11:13:49.347Z,46.35
2022-11-15T11:16:43.463Z,51.97
2022-11-15T11:19:47.966Z,52.97
2022-11-15T11:22:36.420Z,53.83
2022-11-15T11:25:56.595Z,53.10
2022-11-15T11:28:47.607Z,53.20
2022-11-15T11:31:54.482Z,49.22
2022-11-15T11:34:55.670Z,47.95
2022-11-15T11:37:50.337Z,44.22
2022-11-15T11:40:50.245Z,41.92
2022-11-15T11:43:57.258Z,43.42
2022-11-15T11:46:50.855Z,43.47
2022-11-15T11:49:47.087Z,42.00
2022-11-15T11:52:40.972Z,60.67
2022-11-15T11:55:32.788Z,51.03
2022-11-15T11:58:36.233Z,60.28
2022-11-15T12:01:30.275Z,45.40
2022-11-15T12:04:15.604Z,52.80
2022-11-15T12:07:14.907Z,54.28
2022-11-15T12:10:29.707Z,49.08
2022-11-15T12:13:26.625Z,51.25
2022-11-15T12:16:25.801Z,48.08
2022-11-15T12:19:11.807Z,44.63
2022-11-15T12:22:27.807Z,43.10
2022-11-15T12:25:40.315Z,40.00
2022-11-15T12:29:06.814Z,38.83
2022-11-15T12:32:01.052Z,41.63
2022-11-15T12:34:49.163Z,73.35
2022-11-15T12:37:38.841Z,47.90
2022-11-15T12:40:31.047Z,42.72
2022-11-15T12:43:16.737Z,54.58
2022-11-15T12:46:05.618Z,37.25
2022-11-15T12:48:55.996Z,41.97
2022-11-15T12:51:44.880Z,52.33
2022-11-15T12:54:33.341Z,50.55
2022-11-15T12:57:18.624Z,39.53
2022-11-15T13:00:16.410Z,50.95
2022-11-15T13:03:20.116Z,49.45
2022-11-15T13:06:08.337Z,44.83
2022-11-15T13:08:53.918Z,45.78
2022-11-15T13:11:47.769Z,47.85
2022-11-15T13:14:47.065Z,40.40
2022-11-15T13:17:34.846Z,37.38
2022-11-15T13:20:24.931Z,65.32
2022-11-15T13:23:14.707Z,45.08
2022-11-15T13:26:17.724Z,39.42
2022-11-15T13:29:04.562Z,42.40
2022-11-15T13:31:50.240Z,33.70
2022-11-15T13:34:53.327Z,32.53
2022-11-15T13:37:40.925Z,31.00
2022-11-15T13:40:36.309Z,42.30
2022-11-15T13:43:36.458Z,49.25
2022-11-15T13:46:30.946Z,35.08
2022-11-15T13:49:16.590Z,49.53
2022-11-15T13:52:07.021Z,43.30
2022-11-15T13:55:09.226Z,37.33
2022-11-15T13:57:59.293Z,46.33
2022-11-15T14:00:48.270Z,46.92
2022-11-15T14:03:40.075Z,55.55
2022-11-15T14:06:28.332Z,49.00
2022-11-15T14:09:41.031Z,53.88
2022-11-15T14:15:37.757Z,54.55
2022-11-15T14:18:43.969Z,45.33
2022-11-15T14:21:30.354Z,49.97
2022-11-15T14:24:21.336Z,50.80
2022-11-15T14:27:29.319Z,47.97
2022-11-15T14:30:18.603Z,45.65
2022-11-15T14:33:19.964Z,46.20
2022-11-15T14:36:19.083Z,54.67
2022-11-15T14:39:06.467Z,51.72
2022-11-15T14:41:51.830Z,68.45
2022-11-15T14:44:38.203Z,53.50
2022-11-15T14:47:25.847Z,58.55
2022-11-15T14:50:15.097Z,64.97
2022-11-15T14:53:00.949Z,57.63
2022-11-15T14:55:46.645Z,65.03
2022-11-15T14:58:32.226Z,69.60
2022-11-15T15:01:27.625Z,45.58
2022-11-15T15:04:13.259Z,44.38
2022-11-15T15:06:58.717Z,38.10
2022-11-15T15:09:44.991Z,51.20
2022-11-15T17:20:46.261Z,75.25
2022-11-15T17:23:33.570Z,90.57
2022-11-15T17:26:37.785Z,78.93
2022-11-15T17:29:25.863Z,64.32
2022-11-15T17:32:12.457Z,65.68
2022-11-15T17:34:57.851Z,59.47
2022-11-15T17:37:44.189Z,66.93
2022-11-15T17:40:29.904Z,65.93
2022-11-15T17:43:16.840Z,55.90
2022-11-15T17:46:06.712Z,54.35
2022-11-15T17:48:52.177Z,55.92
2022-11-15T17:51:37.643Z,56.08
2022-11-15T17:54:22.958Z,56.75
2022-11-15T17:57:08.305Z,65.72
2022-11-15T17:59:53.873Z,67.75
2022-11-15T18:02:39.373Z,60.28
2022-11-15T18:05:24.670Z,68.63
2022-11-15T18:08:15.428Z,66.32
2022-11-15T18:11:08.355Z,67.50
2022-11-15T18:13:57.066Z,69.13
2022-11-15T18:16:43.002Z,60.65
2022-11-15T18:19:28.696Z,53.88
2022-11-15T18:22:14.135Z,48.25
2022-11-15T18:24:59.506Z,50.80
2022-11-15T18:27:45.159Z,47.40
2022-11-15T18:30:30.998Z,45.45
2022-11-15T18:33:16.553Z,40.28
2022-11-15T18:36:04.417Z,43.88
2022-11-15T18:38:57.792Z,48.28
2022-11-15T18:41:46.577Z,46.95
2022-11-15T18:44:32.473Z,49.33
2022-11-15T18:47:18.021Z,50.33
2022-11-15T18:50:03.617Z,56.97
2022-11-15T18:52:49.045Z,63.33
2022-11-15T18:55:34.380Z,54.70
2022-11-15T18:58:19.766Z,62.63
2022-11-15T19:01:07.628Z,53.90
2022-11-15T19:03:56.131Z,51.05
2022-11-15T19:06:44.929Z,55.60
2022-11-15T19:09:32.805Z,46.90
2022-11-15T19:12:18.513Z,47.38
2022-11-15T19:15:09.833Z,52.00
2022-11-15T19:17:55.553Z,51.10
2022-11-15T19:20:41.591Z,47.72
2022-11-15T19:23:27.296Z,58.03
2022-11-15T19:26:14.214Z,56.22
2022-11-15T19:29:01.917Z,60.80
2022-11-15T19:31:48.732Z,66.15
2022-11-15T19:34:34.603Z,70.97
2022-11-15T19:37:19.962Z,74.57
2022-11-15T19:40:06.483Z,70.22
2022-11-15T19:42:51.645Z,69.40
2022-11-15T19:45:37.277Z,96.55
2022-11-15T19:48:23.061Z,137.07
2022-11-15T19:51:30.487Z,131.43
2022-11-15T19:54:19.072Z,101.18
2022-11-15T19:57:07.393Z,77.97
2022-11-15T19:59:52.893Z,108.32
2022-11-15T20:02:38.297Z,84.32
2022-11-15T20:05:24.303Z,72.70
2022-11-15T20:08:09.978Z,87.40
2022-11-15T20:10:55.494Z,92.47
2022-11-15T20:13:42.172Z,86.22
2022-11-15T20:16:28.409Z,71.72
2022-11-15T20:19:15.897Z,71.13
2022-11-15T20:22:01.347Z,54.30
2022-11-15T20:24:46.552Z,51.00
2022-11-15T20:27:32.274Z,52.22
2022-11-15T20:30:18.129Z,53.78
2022-11-15T20:33:04.330Z,47.42
2022-11-15T20:35:50.311Z,39.33
2022-11-15T20:38:35.837Z,51.03
2022-11-15T20:41:21.385Z,49.22
2022-11-15T20:44:06.687Z,55.72
2022-11-15T20:46:52.060Z,59.60
2022-11-15T20:49:37.431Z,70.47
2022-11-15T20:52:22.737Z,73.68
2022-11-15T20:55:08.827Z,65.07
2022-11-15T20:57:54.741Z,65.00
2022-11-15T21:00:42.024Z,63.97
2022-11-15T21:03:28.386Z,53.70
2022-11-15T21:06:24.611Z,61.33
2022-11-15T21:09:39.023Z,63.72
2022-11-15T21:12:25.254Z,66.72
2022-11-15T21:15:10.721Z,67.85
2022-11-15T21:17:56.117Z,56.25
2022-11-15T21:20:41.785Z,84.13
2022-11-15T21:23:27.359Z,63.90
2022-11-15T21:26:12.668Z,58.40
2022-11-15T21:28:58.027Z,53.70
2022-11-15T21:31:45.146Z,87.53
2022-11-15T21:34:30.637Z,145.95
2022-11-15T21:37:16.480Z,72.45
2022-11-15T21:40:01.746Z,79.80
2022-11-15T21:42:47.149Z,56.90
2022-11-15T21:45:32.613Z,58.03
2022-11-15T21:48:19.115Z,62.30
2022-11-15T21:51:07.247Z,71.07
2022-11-15T21:53:56.561Z,66.65
2022-11-15T21:56:43.252Z,59.00
2022-11-15T21:59:28.808Z,67.43
2022-11-15T22:02:14.468Z,81.32
2022-11-15T22:08:03.097Z,53.35
2022-11-15T22:10:49.831Z,47.63
2022-11-15T22:13:36.141Z,46.30
2022-11-15T22:16:21.741Z,40.90
2022-11-15T22:19:07.367Z,38.17
2022-11-15T22:21:54.168Z,33.97
2022-11-15T22:24:39.514Z,38.55
2022-11-15T22:27:24.700Z,33.60
2022-11-15T22:30:10.922Z,27.75
2022-11-15T22:32:56.443Z,29.65
2022-11-15T22:35:42.374Z,30.45
2022-11-15T22:38:28.593Z,32.22
2022-11-15T22:41:14.315Z,33.80
2022-11-15T22:43:59.791Z,28.58
2022-11-15T22:46:45.362Z,27.30
2022-11-15T22:49:30.682Z,31.98
2022-11-15T22:52:16.154Z,31.85
2022-11-15T22:55:01.574Z,27.92
2022-11-15T22:57:47.066Z,31.88
2022-11-15T23:00:32.545Z,25.85
2022-11-15T23:03:19.338Z,34.03
2022-11-15T23:06:06.687Z,29.25
2022-11-15T23:08:52.524Z,38.30
2022-11-15T23:11:56.455Z,45.33
2022-11-15T23:14:41.817Z,42.97
2022-11-15T23:17:27.313Z,33.53
2022-11-15T23:20:41.446Z,39.55
2022-11-15T23:23:18.307Z,35.95
2022-11-15T23:26:03.754Z,38.75
2022-11-15T23:28:49.119Z,39.78
2022-11-15T23:32:01.155Z,34.63
2022-11-15T23:34:47.388Z,37.05
2022-11-15T23:37:33.586Z,44.10
2022-11-15T23:40:19.088Z,42.17
2022-11-15T23:43:04.640Z,42.60
2022-11-15T23:45:49.937Z,49.53
2022-11-15T23:48:35.722Z,55.65
2022-11-15T23:51:21.750Z,43.83
2022-11-15T23:54:07.504Z,48.40
2022-11-15T23:56:52.889Z,53.90
2022-11-15T23:59:39.819Z,47.30
